Track Линкевич Игорь

Time Latitude Longitude Accuracy (66% radius in meters) Altitude (meters) Speed (km/hour) Bearing (degrees) Battery (%) GPS flag
10:06:39 60.370946 29.556404 8 79.636393145739 0 101.79838562012 86 1 delete
10:06:27 60.370946 29.556404 6 79.580187884735 0 101.79838562012 86 1 delete
10:06:15 60.370946 29.556404 6 79.388017128639 0 101.79838562012 86 1 delete
10:06:06 60.370946 29.556404 6 79.095394337864 0 101.79838562012 86 1 delete
10:05:54 60.370946 29.556404 6 78.578524417981 0 101.79838562012 86 1 delete
10:05:42 60.370946 29.556404 8 78.161123715008 0 101.79838562012 86 1 delete
10:05:30 60.370946 29.556404 12 77.592737538955 0 101.79838562012 86 1 delete
10:05:18 60.370946 29.556404 8 77.093748360806 0 101.79838562012 86 1 delete
10:05:09 60.370946 29.556404 12 77.168038565441 0 101.79838562012 86 1 delete
10:04:57 60.370946 29.556404 16 77.715938123107 0 101.79838562012 86 1 delete
10:04:45 60.370946 29.556404 8 78.784683220749 0 101.79838562012 89 1 delete
10:04:36 60.370946 29.556404 8 79.40317641941 0 101.79838562012 89 1 delete
10:04:33 60.370946 29.556404 8 79.557724561286 1.4721657037735 101.79838562012 89 1 delete
10:04:24 60.370975 29.556477 8 79.768055210758 0 300.38656616211 89 1 delete
10:04:12 60.370975 29.556477 6 80.237360105571 0 300.38656616211 89 1 delete
10:04:00 60.370975 29.556477 8 80.209175953817 0 300.38656616211 89 1 delete
10:03:48 60.370975 29.556477 8 80.236058060197 0 300.38656616211 89 1 delete
10:03:45 60.370962 29.556522 6 80.777936314494 1.0265320539474 323.55447387695 89 1 delete
10:03:36 60.370862 29.556675 8 81.25526761534 0 304.86163330078 89 1 delete
10:03:27 60.370862 29.556675 8 80.735295955062 0 304.86163330078 89 1 delete
10:03:18 60.370849 29.556715 8 80.067582130536 2.5369248390198 300.77130126953 89 1 delete
10:03:15 60.370810 29.556794 8 80.157594873061 0 356.75357055664 89 1 delete
10:03:12 60.370783 29.556825 8 80.201814192148 0 327.73602294922 89 1 delete
10:03:03 60.370710 29.556896 8 80.199524653073 2.335401058197 330.46893310547 89 1 delete
10:03:00 60.370625 29.557098 8 79.259496343858 4.5955014228821 309.73971557617 89 1 delete
10:02:57 60.370622 29.557300 6 79.611043010175 5.9482269287109 242.00201416016 89 1 delete
10:02:54 60.370768 29.557459 6 81.664438962448 7.0647020339966 160.5902557373 89 1 delete
10:02:51 60.370927 29.557248 8 86.75924034573 7.3367476463318 132.36636352539 89 1 delete
10:02:48 60.371063 29.557130 8 88.967496654287 6.0214996337891 176.14799499512 89 1 delete
10:02:45 60.371138 29.557208 6 89.668726857014 5.5308623313904 283.73483276367 89 1 delete
10:02:42 60.371047 29.557515 8 90.348613124415 6.5898504257202 294.00323486328 89 1 delete
10:02:39 60.370931 29.557851 8 90.91784525861 6.354076385498 311.31625366211 89 1 delete
10:02:36 60.370778 29.558120 8 91.76040598047 6.806206703186 305.04290771484 89 1 delete
10:02:33 60.370618 29.558413 8 92.779701960962 6.8896527290344 338.8977355957 89 1 delete
10:02:30 60.370396 29.558491 8 93.028357542194 6.0350604057312 333.50009155273 89 1 delete
10:02:27 60.370240 29.558594 12 94.172909621115 5.6743760108948 328.60836791992 89 1 delete
10:02:24 60.370079 29.558590 8 95.791302048271 4.565062046051 7.0221886634827 89 1 delete
10:02:21 60.369988 29.558523 8 95.925519335636 2.8900330066681 332.14471435547 89 1 delete
10:02:18 60.369885 29.558656 12 96.022705235328 0 327.57482910156 89 1 delete
10:02:15 60.369802 29.558725 8 96.085208081031 4.0408706665039 339.51727294922 89 1 delete
10:02:12 60.369644 29.558839 8 95.347789124989 4.8055219650269 341.38674926758 89 1 delete
10:02:09 60.369499 29.558938 6 95.582534725388 4.2323741912842 341.29174804688 89 1 delete
10:02:06 60.369390 29.559008 8 96.431537843856 2.0220606327057 345.30346679688 89 1 delete
10:02:03 60.369295 29.559070 12 96.470964676503 3.4608085155487 6.517590045929 89 1 delete
10:02:00 60.369215 29.559294 8 97.257075937149 4.9398784637451 277.10604858398 89 1 delete
10:01:57 60.369171 29.559572 8 98.826237888471 4.6973967552185 288.09301757812 89 1 delete
10:01:54 60.369057 29.559727 8 100.88626842694 4.9881992340088 3.4361510276794 89 1 delete
10:01:51 60.368894 29.559747 8 101.29078747225 3.642676115036 346.47579956055 89 1 delete
10:01:48 60.368792 29.559857 12 101.34987622536 2.98801612854 307.50051879883 89 1 delete
10:01:45 60.368741 29.559883 8 101.51855448303 0 309.72863769531 89 1 delete